Airfield :
LOGIN :

Register | Disclaimer

   EN    FR    IT 

 










Legend :    VFR   Marginal VFR   IFR   Intensive IFR   Very Intensive IFR
Visi :
Ceiling :
>= 8 km
>= 3000ft
5 to 8 km
1000 to 3000 ft
1500m to 5 km
500 to 1000 ft
800 to 1500m
200 to 500 ft
< 800m
< 200 ft
Symbols :   Thunderstorms  Fog  Heavy snow  Heavy precipitations  Wind > 20 kt
SIGMETs :     Misc.  Thunderstorms  Icing  Turbulence  Mountain Waves  Volcanic Ashes







- Airport Elevation : 1416 ft
- IATA code : ZRH


LSZH - Zurich

CURRENT METAR :
  • 210720Z 36003KT 330V030 5000 BR FEW012 BKN070 M01/M03 Q1018 TEMPO 4500

EXPIRED METARs :
  • 210650Z 36004KT 5000 BR FEW012 BKN070 M01/M03 Q1018 TEMPO 4500
  • 210620Z 34003KT 5000 BR FEW012 BKN072 M02/M03 Q1018 TEMPO 4500
  • 210550Z 30003KT 5000 BR FEW055 BKN075 M02/M03 Q1017 NOSIG
  • 210520Z 00000KT 5000 BR FEW050 BKN070 M02/M03 Q1017 NOSIG
  • 210450Z VRB01KT 5000 BR BKN070 M02/M03 Q1017 NOSIG

TAF TAF LSZH
Valid from the 21 at 06:00 until the 22 at 12:00 UTC


210525Z 2106/2212 VRB03KT 5000 BR BKN070 TX00/2114Z TNM03/2106Z TNM04/2206Z
TEMPO 2106/2109 4000 BR BKN012
BECMG 2117/2120 4000 BR BKN010
BECMG 2121/2124 2500 BKN008
PROB40 2201/2207 1000 BKN004
BECMG 2209/2212 5000 BKN015
ATIS : +41 43 816 2295 (DEP) +41 43 816 2294 (ARR)
No reported NOTAMs for that airfield.



MET'MAP, your aeronautical weather chart ! - Copyright ORBIFLY December 2007 - Disclaimer

ORBIFLY MET'MAP TEAM :

Programming & Development : Alexandra Zaïnal
Concept & Development : Baudouin d'Aumeries
Co-Development & Prog : Marc-Olivier Méhu
Technical & hardware support : Manuel Goepfert

Contact : metmap@orbifly.com




SOURCES & CREDITS :

   NOAA